Hlavní strana
METAR-TAF:

METAR-TAF

Letiště :

Berlevåg, Norsko

zeměpisná šířka: 70-52N, zeměpisná délka: 029-02E, výška: 1 m

Aktuální stav počasí

Zpráva byla vytvořena před 4 hodinami a 10 minutami, v 20:50 UTC
Západojihozápadní vítr 17 kt
Teplota -1°C
Vlhkost vzduchu 86%
Tlak 1004 hPa
Viditelnost 10 km a více
Skoro jasno ve výšce 2300 ft
Polojasno ve výšce 5200 ft

METAR: ENBV 212050Z 25017KT 9999 FEW023 SCT052 M01/M03 Q1004

Čas: 03:00 (01:00 UTC)

Předpověď počasí

Zpráva byla vytvořena před 8 hodinami a 0 minutami, v 17:00 UTC
Předpověď platná od 21 v 18 UTC do 21 v 21 UTC
Západní vítr 15 kt
Viditelnost 10 km a více
Skoro jasno ve výšce 1200 ft, Cumulonimbus.
Oblačno až skoro zataženo ve výšce 2500 ft
Dočasný
od 21 v 18 UTC do 21 v 21 UTC
Viditelnost: 2000 m
ve výšce 800 ft
sněhové přeháňky

TAF: ENBV 211700Z 2118/2121 28015KT 9999 FEW012CB BKN025 TEMPO 2118/2121 2000 SHSN VV008

Stav a předpovědi počasí z více než 4 000 letišť (zprávy METAR a TAF).

Červené a žluté tečky na mapě představují dostupné meteorologické stanice.

Když kurzor umístíte na tečku, zobrazí se název stanice.

Pak kliknutím zobrazíte stav a předpověď počasí.

Chcete-li změnit mapu, kliknutím na zelené tlačítko se znaménkem +mapu přiblížíte, kliknutím na zelené tlačítko se znaménkem – mapu oddálíte a kliknutím na zelené šipky přejdete na sousední mapy.


METAR-TAF: